createdAt,value
2023-11-18T00:00:43.041Z,100.00
2023-11-18T00:03:09.762Z,100.00
2023-11-18T00:05:36.405Z,100.00
2023-11-18T00:08:03.167Z,100.00
2023-11-18T00:10:30.808Z,100.00
2023-11-18T00:12:57.485Z,100.00
2023-11-18T00:15:24.102Z,100.00
2023-11-18T00:17:50.750Z,100.00
2023-11-18T00:20:17.498Z,100.00
2023-11-18T00:22:44.630Z,100.00
2023-11-18T00:25:12.254Z,100.00
2023-11-18T00:27:38.846Z,100.00
2023-11-18T00:30:06.381Z,100.00
2023-11-18T00:32:33.670Z,100.00
2023-11-18T00:35:00.833Z,100.00
2023-11-18T00:37:28.153Z,100.00
2023-11-18T00:39:54.780Z,100.00
2023-11-18T00:42:21.365Z,100.00
2023-11-18T00:44:48.954Z,100.00
2023-11-18T00:47:15.806Z,100.00
2023-11-18T00:49:42.632Z,100.00
2023-11-18T00:52:10.138Z,100.00
2023-11-18T00:54:37.598Z,100.00
2023-11-18T00:57:04.606Z,100.00
2023-11-18T00:59:31.730Z,100.00
2023-11-18T01:01:58.352Z,100.00
2023-11-18T01:04:25.062Z,100.00
2023-11-18T01:06:52.729Z,100.00
2023-11-18T01:09:19.263Z,100.00
2023-11-18T01:12:07.177Z,100.00
2023-11-18T01:14:32.861Z,100.00
2023-11-18T01:16:59.697Z,100.00
2023-11-18T01:19:26.289Z,100.00
2023-11-18T01:21:54.519Z,100.00
2023-11-18T01:24:21.377Z,100.00
2023-11-18T01:26:47.952Z,100.00
2023-11-18T01:29:14.626Z,100.00
2023-11-18T01:31:51.999Z,100.00
2023-11-18T01:34:24.775Z,100.00
2023-11-18T01:36:51.718Z,100.00
2023-11-18T01:39:19.285Z,100.00
2023-11-18T01:41:46.663Z,100.00
2023-11-18T01:44:16.251Z,100.00
2023-11-18T01:46:46.734Z,100.00
2023-11-18T01:49:15.685Z,100.00
2023-11-18T01:51:47.551Z,100.00
2023-11-18T01:54:17.231Z,100.00
2023-11-18T01:56:48.406Z,100.00
2023-11-18T01:59:19.499Z,100.00
2023-11-18T02:01:51.424Z,100.00
2023-11-18T02:04:20.935Z,100.00
2023-11-18T02:06:50.102Z,100.00
2023-11-18T02:09:20.459Z,100.00
2023-11-18T02:11:57.547Z,100.00
2023-11-18T02:14:27.669Z,100.00
2023-11-18T02:16:57.441Z,100.00
2023-11-18T02:19:26.491Z,100.00
2023-11-18T02:21:58.026Z,100.00
2023-11-18T02:24:32.324Z,100.00
2023-11-18T02:26:59.609Z,100.00
2023-11-18T02:29:29.979Z,100.00
2023-11-18T02:47:06.849Z,100.00
2023-11-18T02:49:36.052Z,100.00
2023-11-18T02:52:03.739Z,100.00
2023-11-18T02:54:30.362Z,100.00
2023-11-18T02:56:57.519Z,100.00
2023-11-18T02:59:24.052Z,100.00
2023-11-18T03:01:55.183Z,100.00
2023-11-18T03:04:21.767Z,100.00
2023-11-18T03:06:48.318Z,100.00
2023-11-18T03:09:17.903Z,100.00
2023-11-18T03:11:45.458Z,100.00
2023-11-18T03:14:12.169Z,100.00
2023-11-18T03:16:40.017Z,100.00
2023-11-18T03:19:06.551Z,100.00
2023-11-18T03:21:33.090Z,100.00
2023-11-18T03:23:59.640Z,100.00
2023-11-18T03:26:27.240Z,100.00
2023-11-18T03:28:53.817Z,100.00
2023-11-18T03:31:21.073Z,100.00
2023-11-18T03:33:47.647Z,100.00
2023-11-18T03:36:14.357Z,100.00
2023-11-18T03:38:41.060Z,100.00
2023-11-18T03:41:10.805Z,100.00
2023-11-18T03:43:38.971Z,100.00
2023-11-18T03:46:05.982Z,100.00
2023-11-18T03:48:32.625Z,100.00
2023-11-18T03:50:59.201Z,100.00
2023-11-18T03:53:25.693Z,100.00
2023-11-18T03:55:53.090Z,100.00
2023-11-18T03:58:19.731Z,100.00
2023-11-18T04:00:46.356Z,100.00
2023-11-18T04:03:13.258Z,100.00
2023-11-18T04:05:40.390Z,100.00
2023-11-18T04:08:07.677Z,100.00
2023-11-18T04:10:34.292Z,100.00
2023-11-18T04:13:00.900Z,100.00
2023-11-18T04:15:28.140Z,100.00
2023-11-18T04:17:54.775Z,100.00
2023-11-18T04:20:21.508Z,100.00
2023-11-18T04:22:48.080Z,100.00
2023-11-18T04:25:14.708Z,100.00
2023-11-18T04:27:45.201Z,100.00
2023-11-18T04:30:14.267Z,100.00
2023-11-18T04:32:43.722Z,100.00
2023-11-18T04:35:13.024Z,100.00
2023-11-18T04:37:44.333Z,100.00
2023-11-18T04:40:12.318Z,100.00
2023-11-18T04:42:39.971Z,100.00
2023-11-18T04:45:07.208Z,100.00
2023-11-18T04:47:34.241Z,100.00
2023-11-18T04:50:00.924Z,100.00
2023-11-18T04:52:28.121Z,100.00
2023-11-18T04:54:54.827Z,100.00
2023-11-18T04:57:21.231Z,100.00
2023-11-18T04:59:47.713Z,100.00
2023-11-18T05:02:14.361Z,100.00
2023-11-18T05:04:42.297Z,100.00
2023-11-18T05:07:08.904Z,100.00
2023-11-18T05:09:35.583Z,100.00
2023-11-18T05:12:02.097Z,100.00
2023-11-18T05:14:29.935Z,100.00
2023-11-18T05:16:57.061Z,100.00
2023-11-18T05:19:23.594Z,100.00
2023-11-18T05:21:53.066Z,100.00
2023-11-18T05:24:19.561Z,100.00
2023-11-18T05:26:46.052Z,100.00
2023-11-18T05:29:17.662Z,100.00
2023-11-18T05:31:44.893Z,100.00
2023-11-18T05:34:11.422Z,100.00
2023-11-18T05:36:38.958Z,100.00
2023-11-18T05:39:10.426Z,100.00
2023-11-18T05:41:40.597Z,100.00
2023-11-18T05:44:10.182Z,100.00
2023-11-18T05:46:37.164Z,100.00
2023-11-18T05:49:09.265Z,100.00
2023-11-18T05:51:36.652Z,100.00
2023-11-18T05:54:03.483Z,100.00
2023-11-18T05:56:29.997Z,100.00
2023-11-18T05:58:56.657Z,100.00
2023-11-18T06:01:23.628Z,100.00
2023-11-18T06:03:50.627Z,100.00
2023-11-18T06:06:21.401Z,100.00
2023-11-18T06:08:50.706Z,100.00
2023-11-18T06:11:17.730Z,100.00
2023-11-18T06:13:52.522Z,100.00
2023-11-18T06:16:22.263Z,100.00
2023-11-18T06:18:51.360Z,100.00
2023-11-18T06:21:19.856Z,100.00
2023-11-18T06:23:48.486Z,100.00
2023-11-18T06:26:16.326Z,100.00
2023-11-18T06:28:45.148Z,100.00
2023-11-18T06:31:13.094Z,100.00
2023-11-18T06:33:44.386Z,100.00
2023-11-18T06:36:18.507Z,100.00
2023-11-18T06:38:50.183Z,100.00
2023-11-18T06:41:18.025Z,100.00
2023-11-18T06:43:55.123Z,100.00
2023-11-18T06:46:23.400Z,100.00
2023-11-18T06:48:58.625Z,100.00
2023-11-18T06:51:28.812Z,100.00
2023-11-18T06:53:58.937Z,100.00
2023-11-18T06:56:25.980Z,100.00
2023-11-18T06:58:53.162Z,100.00
2023-11-18T07:01:25.016Z,100.00
2023-11-18T07:52:16.241Z,100.00
2023-11-18T07:54:54.510Z,100.00
2023-11-18T07:57:21.587Z,100.00
2023-11-18T08:00:00.353Z,100.00
2023-11-18T08:02:27.401Z,100.00
2023-11-18T08:04:57.334Z,100.00
2023-11-18T08:07:24.398Z,100.00
2023-11-18T08:09:51.354Z,100.00
2023-11-18T08:12:17.899Z,100.00
2023-11-18T08:14:44.756Z,100.00
2023-11-18T08:17:11.664Z,100.00
2023-11-18T08:19:38.767Z,100.00
2023-11-18T08:22:05.477Z,100.00
2023-11-18T08:24:34.511Z,100.00
2023-11-18T08:27:01.913Z,100.00
2023-11-18T08:29:43.121Z,100.00
2023-11-18T08:32:13.529Z,100.00
2023-11-18T08:34:41.713Z,100.00
2023-11-18T08:37:08.710Z,100.00
2023-11-18T08:46:28.442Z,100.00
2023-11-18T08:48:57.094Z,100.00
2023-11-18T08:51:27.190Z,100.00
2023-11-18T08:53:55.964Z,100.00
2023-11-18T08:56:32.684Z,100.00
2023-11-18T08:59:23.945Z,100.00
2023-11-18T09:01:50.598Z,100.00
2023-11-18T09:04:21.117Z,99.58
2023-11-18T09:06:49.197Z,99.49
2023-11-18T09:09:16.754Z,99.97
2023-11-18T09:11:43.810Z,99.28
2023-11-18T09:14:10.522Z,98.30
2023-11-18T09:16:40.760Z,97.21
2023-11-18T09:19:07.415Z,98.38
2023-11-18T09:21:38.448Z,97.49
2023-11-18T09:24:06.826Z,98.84
2023-11-18T09:26:33.727Z,96.17
2023-11-18T09:29:04.596Z,97.00
2023-11-18T09:31:35.130Z,96.26
2023-11-18T09:34:02.308Z,95.31
2023-11-18T09:36:30.185Z,94.13
2023-11-18T09:38:56.884Z,94.08
2023-11-18T09:41:27.781Z,92.73
2023-11-18T09:43:57.893Z,92.17
2023-11-18T09:46:31.757Z,93.07
2023-11-18T09:52:53.300Z,90.98
2023-11-18T09:55:33.107Z,91.70
2023-11-18T09:58:14.352Z,90.64
2023-11-18T10:00:43.072Z,90.60
2023-11-18T10:03:11.391Z,90.14
2023-11-18T10:05:41.567Z,89.93
2023-11-18T10:08:08.159Z,90.35
2023-11-18T10:10:38.681Z,90.79
2023-11-18T10:13:19.996Z,89.77
2023-11-18T10:15:51.851Z,88.90
2023-11-18T10:18:52.207Z,88.06
2023-11-18T10:21:58.908Z,86.51
2023-11-18T10:24:27.197Z,86.36
2023-11-18T10:26:57.777Z,86.21
2023-11-18T10:29:30.489Z,86.38
2023-11-18T10:32:09.404Z,86.18
2023-11-18T10:34:37.357Z,85.86
2023-11-18T10:37:09.361Z,86.70
2023-11-18T10:39:36.659Z,85.72
2023-11-18T10:42:04.349Z,85.99
2023-11-18T10:44:31.114Z,87.01
2023-11-18T10:47:00.040Z,85.06
2023-11-18T10:49:38.395Z,86.09
2023-11-18T10:52:09.334Z,86.30
2023-11-18T10:54:35.972Z,87.70
2023-11-18T10:57:08.753Z,86.47
2023-11-18T10:59:35.726Z,85.80
2023-11-18T11:02:18.590Z,85.58
2023-11-18T11:04:46.195Z,85.39
2023-11-18T11:07:14.346Z,85.00
2023-11-18T11:09:43.306Z,86.82
2023-11-18T11:12:16.295Z,85.39
2023-11-18T11:14:51.778Z,85.83
2023-11-18T11:17:31.026Z,85.76
2023-11-18T11:20:19.069Z,86.16
2023-11-18T11:23:21.061Z,86.33
2023-11-18T11:26:01.959Z,86.36
2023-11-18T11:28:57.113Z,87.70
2023-11-18T11:31:37.631Z,86.89
2023-11-18T11:34:26.637Z,86.74
2023-11-18T11:37:00.647Z,88.15
2023-11-18T11:39:31.887Z,87.49
2023-11-18T11:42:04.067Z,86.83
2023-11-18T11:44:32.358Z,87.15
2023-11-18T11:47:02.268Z,86.56
2023-11-18T11:49:48.375Z,86.64
2023-11-18T11:52:29.358Z,87.16
2023-11-18T11:55:06.551Z,86.14
2023-11-18T11:57:37.909Z,86.78
2023-11-18T12:00:16.620Z,86.34
2023-11-18T12:02:57.592Z,86.28
2023-11-18T12:05:27.402Z,86.82
2023-11-18T12:07:56.273Z,87.33
2023-11-18T12:10:30.444Z,86.97
2023-11-18T12:13:19.845Z,87.01
2023-11-18T12:15:58.822Z,86.64
2023-11-18T12:18:26.038Z,87.00
2023-11-18T12:20:57.261Z,88.10
2023-11-18T12:23:26.708Z,91.70
2023-11-18T12:25:58.112Z,90.68
2023-11-18T12:28:32.268Z,89.78
2023-11-18T12:30:59.289Z,89.41
2023-11-18T12:33:32.028Z,89.41
2023-11-18T12:36:10.446Z,89.68
2023-11-18T12:39:15.046Z,88.04
2023-11-18T12:41:42.234Z,88.71
2023-11-18T12:44:36.530Z,87.80
2023-11-18T12:47:16.509Z,85.56
2023-11-18T12:49:43.801Z,83.90
2023-11-18T12:52:14.088Z,83.80
2023-11-18T12:54:44.691Z,84.28
2023-11-18T12:57:15.303Z,84.64
2023-11-18T12:59:43.135Z,82.88
2023-11-18T13:02:14.502Z,83.07
2023-11-18T13:04:41.904Z,83.79
2023-11-18T13:07:12.552Z,83.38
2023-11-18T13:09:40.036Z,83.46
2023-11-18T13:12:10.026Z,82.94
2023-11-18T13:14:38.120Z,83.89
2023-11-18T13:17:09.852Z,84.50
2023-11-18T13:19:36.684Z,84.27
2023-11-18T13:22:09.114Z,84.24
2023-11-18T13:24:40.668Z,85.17
2023-11-18T13:27:10.181Z,85.34
2023-11-18T13:29:42.282Z,84.69
2023-11-18T13:32:11.790Z,85.42
2023-11-18T13:34:43.569Z,85.88
2023-11-18T13:37:11.927Z,84.80
2023-11-18T13:39:39.852Z,84.69
2023-11-18T13:42:27.382Z,83.82
2023-11-18T13:44:54.536Z,82.61
2023-11-18T13:47:22.154Z,82.55
2023-11-18T13:49:51.956Z,83.45
2023-11-18T13:52:20.468Z,83.34
2023-11-18T13:54:48.752Z,83.21
2023-11-18T13:57:15.921Z,82.34
2023-11-18T13:59:45.723Z,82.68
2023-11-18T14:02:13.217Z,84.32
2023-11-18T14:04:41.126Z,84.02
2023-11-18T14:07:07.759Z,83.12
2023-11-18T14:09:37.922Z,82.69
2023-11-18T14:12:07.611Z,83.83
2023-11-18T14:14:34.419Z,84.21
2023-11-18T14:17:01.203Z,84.00
2023-11-18T14:19:28.915Z,84.88
2023-11-18T14:21:57.076Z,86.54
2023-11-18T14:24:24.362Z,86.73
2023-11-18T14:26:51.765Z,87.07
2023-11-18T14:29:19.791Z,87.69
2023-11-18T14:31:47.710Z,87.62
2023-11-18T14:34:14.932Z,87.87
2023-11-18T14:36:42.398Z,88.26
2023-11-18T14:39:14.712Z,89.15
2023-11-18T14:41:41.913Z,90.13
2023-11-18T14:44:10.777Z,90.47
2023-11-18T14:46:42.234Z,90.86
2023-11-18T14:49:09.091Z,90.94
2023-11-18T14:51:36.980Z,90.42
2023-11-18T14:54:03.638Z,92.19
2023-11-18T14:56:30.685Z,94.78
2023-11-18T14:58:57.326Z,94.86
2023-11-18T15:01:23.965Z,95.64
2023-11-18T15:03:50.645Z,96.21
2023-11-18T15:06:25.187Z,95.56
2023-11-18T15:08:51.780Z,95.55
2023-11-18T15:11:24.641Z,95.52
2023-11-18T15:13:54.492Z,96.06
2023-11-18T15:16:21.486Z,96.68
2023-11-18T15:18:48.943Z,96.23
2023-11-18T15:21:16.604Z,96.63
2023-11-18T15:23:43.716Z,96.53
2023-11-18T15:26:11.073Z,95.90
2023-11-18T15:28:38.141Z,95.89
2023-11-18T15:31:05.470Z,95.53
2023-11-18T15:33:32.863Z,95.53
2023-11-18T15:35:59.957Z,95.99
2023-11-18T15:38:26.844Z,96.00
2023-11-18T15:40:53.474Z,96.45
2023-11-18T15:43:20.165Z,97.82
2023-11-18T15:45:46.960Z,98.31
2023-11-18T15:48:15.651Z,97.24
2023-11-18T15:50:42.982Z,97.66
2023-11-18T15:53:09.993Z,97.57
2023-11-18T15:55:39.554Z,97.41
2023-11-18T15:58:06.214Z,96.18
2023-11-18T16:00:33.275Z,96.28
2023-11-18T16:03:02.794Z,97.13
2023-11-18T16:05:35.426Z,97.74
2023-11-18T16:08:03.673Z,97.61
2023-11-18T16:14:10.882Z,98.06
2023-11-18T16:16:38.688Z,98.09
2023-11-18T16:19:05.260Z,98.31
2023-11-18T16:21:32.847Z,97.05
2023-11-18T16:23:59.401Z,97.43
2023-11-18T16:26:25.953Z,97.52
2023-11-18T16:28:52.596Z,97.21
2023-11-18T16:31:19.277Z,96.61
2023-11-18T16:33:46.691Z,96.35
2023-11-18T16:36:23.191Z,98.20
2023-11-18T16:38:49.990Z,97.38
2023-11-18T16:41:16.602Z,97.47
2023-11-18T16:43:43.127Z,97.77
2023-11-18T16:46:10.305Z,98.40
2023-11-18T16:48:36.907Z,98.22
2023-11-18T16:51:03.589Z,98.32
2023-11-18T16:53:30.241Z,98.83
2023-11-18T16:55:56.710Z,99.37
2023-11-18T16:58:23.280Z,100.00
2023-11-18T17:00:52.466Z,100.00
2023-11-18T17:03:22.172Z,100.00
2023-11-18T17:05:48.935Z,99.08
2023-11-18T17:08:15.697Z,99.36
2023-11-18T17:10:43.001Z,99.92
2023-11-18T17:13:09.756Z,99.46
2023-11-18T17:15:36.401Z,99.01
2023-11-18T17:18:04.190Z,98.79
2023-11-18T17:20:43.870Z,99.39
2023-11-18T17:23:10.612Z,100.00
2023-11-18T17:25:37.997Z,99.25
2023-11-18T17:28:09.322Z,100.00
2023-11-18T17:30:38.372Z,100.00
2023-11-18T17:33:05.141Z,100.00
2023-11-18T17:35:31.804Z,99.98
2023-11-18T17:37:58.595Z,100.00
2023-11-18T17:40:28.424Z,100.00
2023-11-18T17:42:55.657Z,99.78
2023-11-18T17:45:22.996Z,99.28
2023-11-18T17:47:49.838Z,98.46
2023-11-18T17:50:18.755Z,99.30
2023-11-18T17:52:48.375Z,98.56
2023-11-18T17:55:28.990Z,98.73
2023-11-18T17:57:58.907Z,99.30
2023-11-18T18:00:28.537Z,98.27
2023-11-18T18:02:56.570Z,98.20
2023-11-18T18:05:26.237Z,97.67
2023-11-18T18:08:11.154Z,97.24
2023-11-18T18:10:38.331Z,97.32
2023-11-18T18:13:38.985Z,97.18
2023-11-18T18:16:06.325Z,97.21
2023-11-18T18:18:33.189Z,97.96
2023-11-18T18:20:59.883Z,96.96
2023-11-18T18:23:26.457Z,95.90
2023-11-18T18:25:53.217Z,94.83
2023-11-18T18:28:19.652Z,93.71
2023-11-18T18:30:46.194Z,93.37
2023-11-18T18:33:12.967Z,94.12
2023-11-18T18:35:42.694Z,93.44
2023-11-18T18:38:12.177Z,93.43
2023-11-18T18:40:38.804Z,92.12
2023-11-18T18:43:07.585Z,91.30
2023-11-18T18:45:34.544Z,91.55
2023-11-18T18:48:01.161Z,91.06
2023-11-18T18:50:27.817Z,91.18
2023-11-18T18:52:54.387Z,91.62
2023-11-18T18:55:21.312Z,91.93
2023-11-18T18:57:47.973Z,91.54
2023-11-18T19:00:14.686Z,90.84
2023-11-18T19:02:41.618Z,92.38
2023-11-18T19:05:12.562Z,92.18
2023-11-18T19:07:39.208Z,91.36
2023-11-18T19:10:09.286Z,91.72
2023-11-18T19:12:35.879Z,90.86
2023-11-18T19:15:06.019Z,91.03
2023-11-18T19:17:36.133Z,91.58
2023-11-18T22:56:48.838Z,93.89
2023-11-18T22:59:18.324Z,94.31
2023-11-18T23:01:52.418Z,96.25
2023-11-18T23:04:19.448Z,94.55
2023-11-18T23:06:55.852Z,95.21
2023-11-18T23:09:23.297Z,93.99
2023-11-18T23:11:49.991Z,96.89
2023-11-18T23:14:16.678Z,96.15
2023-11-18T23:16:44.471Z,97.23
2023-11-18T23:19:12.005Z,97.39
2023-11-18T23:21:39.424Z,96.21
2023-11-18T23:24:07.033Z,97.03
2023-11-18T23:26:33.608Z,97.02
2023-11-18T23:29:00.173Z,96.57
2023-11-18T23:31:26.878Z,97.12
2023-11-18T23:33:53.658Z,99.47
2023-11-18T23:36:20.432Z,99.20
2023-11-18T23:38:47.475Z,98.78
2023-11-18T23:41:15.166Z,100.00
2023-11-18T23:43:41.945Z,100.00
2023-11-18T23:46:09.075Z,100.00
2023-11-18T23:48:38.080Z,100.00
2023-11-18T23:51:06.219Z,100.00
2023-11-18T23:53:33.836Z,100.00
2023-11-18T23:56:00.603Z,100.00
2023-11-18T23:58:27.197Z,100.00
